To NAV CANADA Home Page Login to a new session Search on AWWS site Feedback and Comments Disclaimer Vers la page française équivalente Tips FAQ What's new on the site To the Forecasts and Observations / NOTAM section To "File a Flight Plan" website Publications and other links Update of the User's profile FIC Telephone Numbers My Weather Data Folder Route Weather Data Regional Weather Data Local Weather Data To the Forecasts and Observations / NOTAM section
Request Generated 10/17/2017 at 01:55:48 UTC . Weather information available at that time is displayed.

METAR/TAF

MEDICINE HAT/AB    (show WxCam)

METAR CYXH 170100Z 22020G27KT 30SM SCT270 17/M01 A2976 RMK CI4 SLP088
DENSITY ALT 3300FT=
METAR CYXH 170000Z 22017G26KT 30SM SCT270 18/00 A2978 RMK CI4 SLP093
DENSITY ALT 3500FT=
METAR CYXH 162300Z 24024G31KT 30SM FEW270 20/01 A2979 RMK CI2 SLP092
DENSITY ALT 3700FT=

TAF CYXH 162338Z 1700/1712 24022G32KT P6SM FEW250
RMK NXT FCST BY 170600Z=
Your time UTC time
Weather data provided by Environment Canada and NAV CANADA